sensor_id;sensor_type;location;lat;lon;timestamp;pressure;altitude;pressure_sealevel;temperature;humidity
5651;BME280;40241;52.684;9.758;2023-02-28T00:00:19;102920.75;;;1.77;56.57
5651;BME280;40241;52.684;9.758;2023-02-28T00:02:45;102919.91;;;1.73;56.53
5651;BME280;40241;52.684;9.758;2023-02-28T00:05:13;102926.81;;;1.63;56.52
5651;BME280;40241;52.684;9.758;2023-02-28T00:07:38;102913.50;;;1.47;56.61
5651;BME280;40241;52.684;9.758;2023-02-28T00:10:11;102928.94;;;1.40;56.75
5651;BME280;40241;52.684;9.758;2023-02-28T00:12:37;102921.09;;;1.31;57.14
5651;BME280;40241;52.684;9.758;2023-02-28T00:15:09;102925.00;;;1.34;57.16
5651;BME280;40241;52.684;9.758;2023-02-28T00:17:34;102922.66;;;1.32;57.12
5651;BME280;40241;52.684;9.758;2023-02-28T00:20:00;102924.16;;;1.26;56.89
5651;BME280;40241;52.684;9.758;2023-02-28T00:22:38;102928.34;;;1.20;57.13
5651;BME280;40241;52.684;9.758;2023-02-28T00:25:04;102932.56;;;1.14;57.15
5651;BME280;40241;52.684;9.758;2023-02-28T00:27:32;102920.50;;;1.12;57.51
5651;BME280;40241;52.684;9.758;2023-02-28T00:29:57;102921.72;;;1.14;57.31
5651;BME280;40241;52.684;9.758;2023-02-28T00:32:23;102927.53;;;1.16;57.40
5651;BME280;40241;52.684;9.758;2023-02-28T00:34:48;102927.22;;;1.21;57.40
5651;BME280;40241;52.684;9.758;2023-02-28T00:37:13;102929.19;;;1.24;57.07
5651;BME280;40241;52.684;9.758;2023-02-28T00:39:39;102931.47;;;1.22;56.98
5651;BME280;40241;52.684;9.758;2023-02-28T00:42:05;102922.91;;;1.20;56.90
5651;BME280;40241;52.684;9.758;2023-02-28T00:44:31;102934.94;;;1.19;56.98
5651;BME280;40241;52.684;9.758;2023-02-28T00:46:58;102926.81;;;1.19;57.18
5651;BME280;40241;52.684;9.758;2023-02-28T00:49:24;102931.44;;;1.19;56.94
5651;BME280;40241;52.684;9.758;2023-02-28T00:51:50;102940.75;;;1.18;57.21
5651;BME280;40241;52.684;9.758;2023-02-28T00:54:16;102930.25;;;1.16;56.91
5651;BME280;40241;52.684;9.758;2023-02-28T00:56:41;102937.97;;;1.14;57.34
5651;BME280;40241;52.684;9.758;2023-02-28T00:59:06;102930.13;;;1.06;57.22
5651;BME280;40241;52.684;9.758;2023-02-28T01:01:32;102939.38;;;1.01;57.47
5651;BME280;40241;52.684;9.758;2023-02-28T01:03:57;102929.28;;;0.98;57.55
5651;BME280;40241;52.684;9.758;2023-02-28T01:06:23;102928.81;;;0.89;57.53
5651;BME280;40241;52.684;9.758;2023-02-28T01:08:48;102937.69;;;0.90;57.21
5651;BME280;40241;52.684;9.758;2023-02-28T01:11:16;102933.06;;;0.90;57.30
5651;BME280;40241;52.684;9.758;2023-02-28T01:13:43;102933.88;;;0.94;57.55
5651;BME280;40241;52.684;9.758;2023-02-28T01:16:08;102936.63;;;0.98;57.54
5651;BME280;40241;52.684;9.758;2023-02-28T01:18:33;102934.72;;;0.98;57.48
5651;BME280;40241;52.684;9.758;2023-02-28T01:21:04;102933.13;;;0.97;57.15
5651;BME280;40241;52.684;9.758;2023-02-28T01:23:29;102935.44;;;0.95;57.55
5651;BME280;40241;52.684;9.758;2023-02-28T01:25:54;102940.03;;;0.91;57.81
5651;BME280;40241;52.684;9.758;2023-02-28T01:28:20;102943.91;;;0.90;57.30
5651;BME280;40241;52.684;9.758;2023-02-28T01:30:50;102934.63;;;0.91;57.40
5651;BME280;40241;52.684;9.758;2023-02-28T01:33:16;102931.84;;;0.84;57.10
5651;BME280;40241;52.684;9.758;2023-02-28T01:35:41;102939.97;;;0.84;57.29
5651;BME280;40241;52.684;9.758;2023-02-28T01:38:07;102937.22;;;0.81;57.51
5651;BME280;40241;52.684;9.758;2023-02-28T01:40:32;102934.81;;;0.75;57.36
5651;BME280;40241;52.684;9.758;2023-02-28T01:42:57;102931.34;;;0.75;57.36
5651;BME280;40241;52.684;9.758;2023-02-28T01:47:56;102945.25;;;0.73;57.14
5651;BME280;40241;52.684;9.758;2023-02-28T01:50:25;102938.25;;;0.72;57.35
5651;BME280;40241;52.684;9.758;2023-02-28T01:52:53;102930.13;;;0.72;57.21
5651;BME280;40241;52.684;9.758;2023-02-28T01:55:22;102936.72;;;0.71;57.39
5651;BME280;40241;52.684;9.758;2023-02-28T01:57:52;102937.81;;;0.67;57.23
5651;BME280;40241;52.684;9.758;2023-02-28T02:00:23;102946.63;;;0.60;57.29
5651;BME280;40241;52.684;9.758;2023-02-28T02:02:51;102928.69;;;0.49;57.34
5651;BME280;40241;52.684;9.758;2023-02-28T02:05:21;102933.59;;;0.40;57.67
5651;BME280;40241;52.684;9.758;2023-02-28T02:07:50;102932.31;;;0.30;57.65
5651;BME280;40241;52.684;9.758;2023-02-28T02:10:19;102926.00;;;0.23;57.47
5651;BME280;40241;52.684;9.758;2023-02-28T02:12:52;102925.97;;;0.19;57.59
5651;BME280;40241;52.684;9.758;2023-02-28T02:18:09;102927.47;;;0.17;58.08
5651;BME280;40241;52.684;9.758;2023-02-28T02:20:45;102917.00;;;0.15;58.02
5651;BME280;40241;52.684;9.758;2023-02-28T02:34:43;102915.59;;;-0.02;57.97
5651;BME280;40241;52.684;9.758;2023-02-28T02:37:29;102910.97;;;-0.01;58.64
5651;BME280;40241;52.684;9.758;2023-02-28T02:42:32;102906.13;;;0.12;58.17
5651;BME280;40241;52.684;9.758;2023-02-28T02:45:07;102910.41;;;0.13;57.98
5651;BME280;40241;52.684;9.758;2023-02-28T02:47:35;102914.31;;;0.15;58.14
5651;BME280;40241;52.684;9.758;2023-02-28T02:50:05;102903.53;;;0.19;57.80
5651;BME280;40241;52.684;9.758;2023-02-28T02:52:40;102915.13;;;0.19;57.96
5651;BME280;40241;52.684;9.758;2023-02-28T02:55:08;102914.31;;;0.15;57.80
5651;BME280;40241;52.684;9.758;2023-02-28T02:58:26;102919.66;;;0.12;57.98
5651;BME280;40241;52.684;9.758;2023-02-28T03:00:42;102918.38;;;0.02;58.13
5651;BME280;40241;52.684;9.758;2023-02-28T03:03:10;102915.47;;;-0.09;57.83
5651;BME280;40241;52.684;9.758;2023-02-28T03:05:44;102908.53;;;-0.10;57.89
5651;BME280;40241;52.684;9.758;2023-02-28T03:08:11;102914.75;;;-0.06;58.19
5651;BME280;40241;52.684;9.758;2023-02-28T03:10:41;102912.44;;;-0.07;58.05
5651;BME280;40241;52.684;9.758;2023-02-28T03:24:49;102913.09;;;-0.14;58.34
5651;BME280;40241;52.684;9.758;2023-02-28T03:27:31;102917.34;;;-0.13;58.33
5651;BME280;40241;52.684;9.758;2023-02-28T03:30:35;102911.94;;;-0.13;58.54
5651;BME280;40241;52.684;9.758;2023-02-28T03:33:17;102916.22;;;-0.12;58.31
5651;BME280;40241;52.684;9.758;2023-02-28T03:36:02;102912.28;;;-0.18;58.19
5651;BME280;40241;52.684;9.758;2023-02-28T03:41:25;102910.28;;;-0.21;58.10
5651;BME280;40241;52.684;9.758;2023-02-28T03:43:56;102907.16;;;-0.23;57.78
5651;BME280;40241;52.684;9.758;2023-02-28T03:46:25;102911.78;;;-0.23;58.07
5651;BME280;40241;52.684;9.758;2023-02-28T03:49:06;102915.69;;;-0.21;57.99
5651;BME280;40241;52.684;9.758;2023-02-28T03:51:35;102908.28;;;-0.24;57.87
5651;BME280;40241;52.684;9.758;2023-02-28T03:54:30;102907.47;;;-0.28;57.79
5651;BME280;40241;52.684;9.758;2023-02-28T03:57:06;102914.31;;;-0.34;57.89
5651;BME280;40241;52.684;9.758;2023-02-28T03:59:38;102910.28;;;-0.43;58.00
5651;BME280;40241;52.684;9.758;2023-02-28T04:02:05;102913.13;;;-0.59;57.85
5651;BME280;40241;52.684;9.758;2023-02-28T04:04:31;102915.31;;;-0.68;58.12
5651;BME280;40241;52.684;9.758;2023-02-28T04:07:05;102918.25;;;-0.77;58.26
5651;BME280;40241;52.684;9.758;2023-02-28T04:09:31;102915.03;;;-0.82;58.23
5651;BME280;40241;52.684;9.758;2023-02-28T04:11:56;102915.75;;;-0.85;58.29
5651;BME280;40241;52.684;9.758;2023-02-28T04:14:22;102926.56;;;-0.85;58.65
5651;BME280;40241;52.684;9.758;2023-02-28T04:16:48;102928.19;;;-0.81;58.55
5651;BME280;40241;52.684;9.758;2023-02-28T04:19:14;102923.97;;;-0.78;58.37
5651;BME280;40241;52.684;9.758;2023-02-28T04:21:42;102925.97;;;-0.75;58.44
5651;BME280;40241;52.684;9.758;2023-02-28T04:24:10;102932.22;;;-0.71;58.09
5651;BME280;40241;52.684;9.758;2023-02-28T04:26:40;102919.13;;;-0.69;58.13
5651;BME280;40241;52.684;9.758;2023-02-28T04:29:05;102915.72;;;-0.66;58.12
5651;BME280;40241;52.684;9.758;2023-02-28T04:31:32;102921.88;;;-0.65;58.39
5651;BME280;40241;52.684;9.758;2023-02-28T04:33:57;102925.78;;;-0.63;58.21
5651;BME280;40241;52.684;9.758;2023-02-28T04:36:23;102927.75;;;-0.63;57.81
5651;BME280;40241;52.684;9.758;2023-02-28T04:38:49;102923.00;;;-0.70;57.91
5651;BME280;40241;52.684;9.758;2023-02-28T04:41:15;102924.63;;;-0.85;58.04
5651;BME280;40241;52.684;9.758;2023-02-28T04:43:40;102922.91;;;-0.96;57.75
5651;BME280;40241;52.684;9.758;2023-02-28T04:46:06;102929.44;;;-0.97;58.27
5651;BME280;40241;52.684;9.758;2023-02-28T04:48:33;102927.56;;;-0.93;58.37
5651;BME280;40241;52.684;9.758;2023-02-28T04:51:07;102926.44;;;-0.92;58.03
5651;BME280;40241;52.684;9.758;2023-02-28T04:53:33;102930.69;;;-0.91;58.03
5651;BME280;40241;52.684;9.758;2023-02-28T04:55:59;102923.38;;;-0.91;58.14
5651;BME280;40241;52.684;9.758;2023-02-28T04:58:24;102934.53;;;-0.92;57.92
5651;BME280;40241;52.684;9.758;2023-02-28T05:00:51;102929.06;;;-0.96;58.01
5651;BME280;40241;52.684;9.758;2023-02-28T05:03:17;102933.69;;;-0.96;57.99
5651;BME280;40241;52.684;9.758;2023-02-28T05:05:42;102933.69;;;-0.96;58.40
5651;BME280;40241;52.684;9.758;2023-02-28T05:08:07;102927.56;;;-0.93;58.28
5651;BME280;40241;52.684;9.758;2023-02-28T05:10:35;102928.41;;;-0.89;58.29
5651;BME280;40241;52.684;9.758;2023-02-28T05:13:00;102935.81;;;-0.86;58.36
5651;BME280;40241;52.684;9.758;2023-02-28T05:15:25;102934.66;;;-0.85;58.08
5651;BME280;40241;52.684;9.758;2023-02-28T05:17:51;102930.81;;;-0.84;58.00
5651;BME280;40241;52.684;9.758;2023-02-28T05:20:16;102934.66;;;-0.85;58.16
5651;BME280;40241;52.684;9.758;2023-02-28T05:22:43;102939.63;;;-0.87;57.64
5651;BME280;40241;52.684;9.758;2023-02-28T05:25:12;102937.72;;;-0.87;57.73
5651;BME280;40241;52.684;9.758;2023-02-28T05:27:38;102933.81;;;-0.89;57.80
5651;BME280;40241;52.684;9.758;2023-02-28T05:30:05;102932.19;;;-0.94;57.75
5651;BME280;40241;52.684;9.758;2023-02-28T05:32:31;102937.09;;;-0.99;57.76
5651;BME280;40241;52.684;9.758;2023-02-28T05:34:56;102936.25;;;-1.03;57.76
5651;BME280;40241;52.684;9.758;2023-02-28T05:37:21;102933.91;;;-1.05;57.65
5651;BME280;40241;52.684;9.758;2023-02-28T05:39:47;102925.78;;;-1.05;57.77
5651;BME280;40241;52.684;9.758;2023-02-28T05:42:13;102936.53;;;-1.08;57.70
5651;BME280;40241;52.684;9.758;2023-02-28T05:44:38;102933.28;;;-1.17;57.78
5651;BME280;40241;52.684;9.758;2023-02-28T05:47:03;102928.09;;;-1.26;57.90
5651;BME280;40241;52.684;9.758;2023-02-28T05:49:29;102934.97;;;-1.28;57.90
5651;BME280;40241;52.684;9.758;2023-02-28T05:51:54;102934.22;;;-1.29;58.04
5651;BME280;40241;52.684;9.758;2023-02-28T05:54:19;102939.53;;;-1.32;57.84
5651;BME280;40241;52.684;9.758;2023-02-28T05:56:45;102944.50;;;-1.34;58.17
5651;BME280;40241;52.684;9.758;2023-02-28T05:59:14;102936.25;;;-1.41;57.81
5651;BME280;40241;52.684;9.758;2023-02-28T06:01:41;102958.84;;;-1.49;58.14
5651;BME280;40241;52.684;9.758;2023-02-28T06:04:09;102942.84;;;-1.58;58.03
5651;BME280;40241;52.684;9.758;2023-02-28T06:06:35;102940.34;;;-1.67;57.86
5651;BME280;40241;52.684;9.758;2023-02-28T06:09:05;102948.53;;;-1.79;58.21
5651;BME280;40241;52.684;9.758;2023-02-28T06:11:31;102941.78;;;-1.88;58.29
5651;BME280;40241;52.684;9.758;2023-02-28T06:13:57;102949.09;;;-1.89;58.58
5651;BME280;40241;52.684;9.758;2023-02-28T06:16:25;102944.91;;;-1.86;58.53
5651;BME280;40241;52.684;9.758;2023-02-28T06:18:51;102951.84;;;-1.85;58.60
5651;BME280;40241;52.684;9.758;2023-02-28T06:21:17;102949.16;;;-1.85;58.42
5651;BME280;40241;52.684;9.758;2023-02-28T06:23:43;102957.25;;;-1.85;58.56
5651;BME280;40241;52.684;9.758;2023-02-28T06:26:09;102956.56;;;-1.82;58.39
5651;BME280;40241;52.684;9.758;2023-02-28T06:28:34;102946.19;;;-1.80;58.57
5651;BME280;40241;52.684;9.758;2023-02-28T06:30:59;102960.19;;;-1.75;58.41
5651;BME280;40241;52.684;9.758;2023-02-28T06:33:24;102958.69;;;-1.72;58.38
5651;BME280;40241;52.684;9.758;2023-02-28T06:35:50;102964.09;;;-1.72;58.37
5651;BME280;40241;52.684;9.758;2023-02-28T06:38:16;102965.75;;;-1.68;58.57
5651;BME280;40241;52.684;9.758;2023-02-28T06:40:43;102966.28;;;-1.62;58.68
5651;BME280;40241;52.684;9.758;2023-02-28T06:43:09;102968.34;;;-1.56;58.54
5651;BME280;40241;52.684;9.758;2023-02-28T06:45:41;102964.94;;;-1.53;58.27
5651;BME280;40241;52.684;9.758;2023-02-28T06:48:07;102968.47;;;-1.48;58.23
5651;BME280;40241;52.684;9.758;2023-02-28T06:50:32;102974.34;;;-1.46;58.52
5651;BME280;40241;52.684;9.758;2023-02-28T06:52:58;102980.06;;;-1.48;58.12
5651;BME280;40241;52.684;9.758;2023-02-28T06:55:23;102989.22;;;-1.53;58.19
5651;BME280;40241;52.684;9.758;2023-02-28T06:57:48;102979.28;;;-1.48;58.30
5651;BME280;40241;52.684;9.758;2023-02-28T07:00:15;102978.22;;;-1.44;58.38
5651;BME280;40241;52.684;9.758;2023-02-28T07:02:41;102978.03;;;-1.35;58.19
5651;BME280;40241;52.684;9.758;2023-02-28T07:05:06;102990.47;;;-1.31;58.39
5651;BME280;40241;52.684;9.758;2023-02-28T07:07:32;102992.09;;;-1.26;58.32
5651;BME280;40241;52.684;9.758;2023-02-28T07:09:58;102990.72;;;-1.20;58.24
5651;BME280;40241;52.684;9.758;2023-02-28T07:12:23;102993.84;;;-1.18;58.20
5651;BME280;40241;52.684;9.758;2023-02-28T07:14:49;102999.34;;;-1.11;58.12
5651;BME280;40241;52.684;9.758;2023-02-28T07:17:14;103000.66;;;-1.05;58.09
5651;BME280;40241;52.684;9.758;2023-02-28T07:19:39;102998.03;;;-1.02;58.26
5651;BME280;40241;52.684;9.758;2023-02-28T07:22:06;103005.06;;;-0.97;58.16
5651;BME280;40241;52.684;9.758;2023-02-28T07:24:31;102997.81;;;-0.93;58.47
5651;BME280;40241;52.684;9.758;2023-02-28T07:26:57;103000.66;;;-0.86;58.35
5651;BME280;40241;52.684;9.758;2023-02-28T07:29:22;103003.50;;;-0.79;58.30
5651;BME280;40241;52.684;9.758;2023-02-28T07:31:48;102993.19;;;-0.73;58.54
5651;BME280;40241;52.684;9.758;2023-02-28T07:34:15;102998.31;;;-0.68;58.44
5651;BME280;40241;52.684;9.758;2023-02-28T07:36:40;102992.06;;;-0.72;58.42
5651;BME280;40241;52.684;9.758;2023-02-28T07:39:06;102996.66;;;-0.73;58.33
5651;BME280;40241;52.684;9.758;2023-02-28T07:41:31;102986.34;;;-0.67;58.50
5651;BME280;40241;52.684;9.758;2023-02-28T07:43:59;102999.28;;;-0.57;58.71
5651;BME280;40241;52.684;9.758;2023-02-28T07:46:26;102996.72;;;-0.50;58.31
5651;BME280;40241;52.684;9.758;2023-02-28T07:48:51;102996.06;;;-0.44;58.59
5651;BME280;40241;52.684;9.758;2023-02-28T07:51:18;102993.81;;;-0.38;58.82
5651;BME280;40241;52.684;9.758;2023-02-28T07:53:44;103006.31;;;-0.30;58.80
5651;BME280;40241;52.684;9.758;2023-02-28T07:56:09;102995.63;;;-0.23;58.45
5651;BME280;40241;52.684;9.758;2023-02-28T07:58:36;103008.13;;;-0.15;58.64
5651;BME280;40241;52.684;9.758;2023-02-28T08:01:08;102993.19;;;-0.09;58.91
5651;BME280;40241;52.684;9.758;2023-02-28T08:03:34;103003.75;;;-0.01;58.87
5651;BME280;40241;52.684;9.758;2023-02-28T08:06:01;102996.88;;;0.06;58.68
5651;BME280;40241;52.684;9.758;2023-02-28T08:08:27;103007.03;;;0.12;58.63
5651;BME280;40241;52.684;9.758;2023-02-28T08:11:01;103005.25;;;0.20;58.49
5651;BME280;40241;52.684;9.758;2023-02-28T08:13:28;103002.63;;;0.27;58.98
5651;BME280;40241;52.684;9.758;2023-02-28T08:15:54;103002.72;;;0.34;58.55
5651;BME280;40241;52.684;9.758;2023-02-28T08:18:21;103009.06;;;0.41;58.98
5651;BME280;40241;52.684;9.758;2023-02-28T08:20:46;103008.72;;;0.46;58.90
5651;BME280;40241;52.684;9.758;2023-02-28T08:23:12;103030.13;;;0.55;59.05
5651;BME280;40241;52.684;9.758;2023-02-28T08:25:37;103005.47;;;0.63;58.93
5651;BME280;40241;52.684;9.758;2023-02-28T08:28:03;103004.84;;;0.73;59.10
5651;BME280;40241;52.684;9.758;2023-02-28T08:30:28;103005.41;;;0.86;59.07
5651;BME280;40241;52.684;9.758;2023-02-28T08:32:53;103001.31;;;0.99;59.25
5651;BME280;40241;52.684;9.758;2023-02-28T08:35:21;103004.94;;;1.10;59.24
5651;BME280;40241;52.684;9.758;2023-02-28T08:37:48;103001.94;;;1.19;59.32
5651;BME280;40241;52.684;9.758;2023-02-28T08:40:14;103022.13;;;1.25;59.22
5651;BME280;40241;52.684;9.758;2023-02-28T08:42:44;103016.78;;;1.32;59.31
5651;BME280;40241;52.684;9.758;2023-02-28T08:45:10;103017.25;;;1.37;59.29
5651;BME280;40241;52.684;9.758;2023-02-28T08:47:35;103016.56;;;1.47;59.36
5651;BME280;40241;52.684;9.758;2023-02-28T08:50:01;103015.47;;;1.56;59.28
5651;BME280;40241;52.684;9.758;2023-02-28T08:52:26;103016.34;;;1.63;59.27
5651;BME280;40241;52.684;9.758;2023-02-28T08:54:51;103010.22;;;1.70;59.51
5651;BME280;40241;52.684;9.758;2023-02-28T08:57:16;103018.06;;;1.82;59.81
5651;BME280;40241;52.684;9.758;2023-02-28T08:59:42;103010.41;;;1.91;59.91
5651;BME280;40241;52.684;9.758;2023-02-28T09:02:09;103019.41;;;2.02;59.84
5651;BME280;40241;52.684;9.758;2023-02-28T09:04:37;103014.03;;;2.09;59.65
5651;BME280;40241;52.684;9.758;2023-02-28T09:07:02;103015.72;;;2.24;60.06
5651;BME280;40241;52.684;9.758;2023-02-28T09:09:27;103031.69;;;2.36;59.81
5651;BME280;40241;52.684;9.758;2023-02-28T09:11:55;103025.19;;;2.48;59.81
5651;BME280;40241;52.684;9.758;2023-02-28T09:14:20;103024.50;;;2.65;59.86
5651;BME280;40241;52.684;9.758;2023-02-28T09:16:46;103015.66;;;2.78;59.92
5651;BME280;40241;52.684;9.758;2023-02-28T09:19:11;103012.25;;;2.95;60.12
5651;BME280;40241;52.684;9.758;2023-02-28T09:21:38;103026.69;;;3.14;60.21
5651;BME280;40241;52.684;9.758;2023-02-28T09:24:03;103022.09;;;3.32;60.18
5651;BME280;40241;52.684;9.758;2023-02-28T09:26:28;103012.41;;;3.52;59.93
5651;BME280;40241;52.684;9.758;2023-02-28T09:28:54;103017.91;;;3.76;59.96
5651;BME280;40241;52.684;9.758;2023-02-28T09:31:25;103022.59;;;3.97;59.42
5651;BME280;40241;52.684;9.758;2023-02-28T09:33:52;103025.72;;;4.20;59.42
5651;BME280;40241;52.684;9.758;2023-02-28T09:36:18;103031.16;;;4.38;59.18
5651;BME280;40241;52.684;9.758;2023-02-28T09:38:44;103022.94;;;4.55;58.83
5651;BME280;40241;52.684;9.758;2023-02-28T09:41:14;103029.53;;;4.69;58.69
5651;BME280;40241;52.684;9.758;2023-02-28T09:43:44;103025.56;;;4.87;58.20
5651;BME280;40241;52.684;9.758;2023-02-28T09:46:31;103022.75;;;5.12;56.92
5651;BME280;40241;52.684;9.758;2023-02-28T09:48:58;103026.56;;;5.32;57.83
5651;BME280;40241;52.684;9.758;2023-02-28T09:51:43;103029.16;;;5.53;57.51
5651;BME280;40241;52.684;9.758;2023-02-28T09:54:14;103018.56;;;5.66;57.82
5651;BME280;40241;52.684;9.758;2023-02-28T09:56:45;103027.44;;;5.77;57.57
5651;BME280;40241;52.684;9.758;2023-02-28T09:59:28;103021.56;;;5.85;56.39
5651;BME280;40241;52.684;9.758;2023-02-28T10:06:58;103022.91;;;6.15;56.17
5651;BME280;40241;52.684;9.758;2023-02-28T10:09:30;103015.84;;;6.17;55.74
5651;BME280;40241;52.684;9.758;2023-02-28T10:12:04;103023.69;;;6.12;55.52
5651;BME280;40241;52.684;9.758;2023-02-28T10:14:32;103022.59;;;6.05;54.82
5651;BME280;40241;52.684;9.758;2023-02-28T10:17:07;103022.53;;;6.13;54.91
5651;BME280;40241;52.684;9.758;2023-02-28T10:19:51;103015.38;;;6.26;54.51
5651;BME280;40241;52.684;9.758;2023-02-28T10:22:26;103024.31;;;6.33;53.06
5651;BME280;40241;52.684;9.758;2023-02-28T10:24:55;103034.78;;;6.42;54.53
5651;BME280;40241;52.684;9.758;2023-02-28T10:27:31;103023.78;;;6.45;53.18
5651;BME280;40241;52.684;9.758;2023-02-28T10:29:59;103027.19;;;6.56;53.91
5651;BME280;40241;52.684;9.758;2023-02-28T10:32:33;103049.41;;;6.62;53.24
5651;BME280;40241;52.684;9.758;2023-02-28T10:37:50;103033.69;;;6.69;51.75
5651;BME280;40241;52.684;9.758;2023-02-28T10:42:56;103036.75;;;6.78;52.75
5651;BME280;40241;52.684;9.758;2023-02-28T10:45:22;103030.91;;;6.73;53.61
5651;BME280;40241;52.684;9.758;2023-02-28T10:53:17;103023.53;;;6.70;49.90
5651;BME280;40241;52.684;9.758;2023-02-28T10:58:30;103025.44;;;6.73;51.53
5651;BME280;40241;52.684;9.758;2023-02-28T11:00:57;103021.50;;;6.77;53.22
5651;BME280;40241;52.684;9.758;2023-02-28T11:03:32;103018.63;;;6.88;52.66
5651;BME280;40241;52.684;9.758;2023-02-28T11:06:03;103011.91;;;6.96;52.79
5651;BME280;40241;52.684;9.758;2023-02-28T11:08:29;103013.38;;;7.04;52.89
5651;BME280;40241;52.684;9.758;2023-02-28T11:10:57;103012.88;;;7.13;53.21
5651;BME280;40241;52.684;9.758;2023-02-28T11:13:31;103008.94;;;7.14;46.86
5651;BME280;40241;52.684;9.758;2023-02-28T11:15:59;103005.44;;;7.13;51.81
5651;BME280;40241;52.684;9.758;2023-02-28T11:21:15;103000.16;;;7.29;50.67
5651;BME280;40241;52.684;9.758;2023-02-28T11:23:42;102992.94;;;7.39;51.94
5651;BME280;40241;52.684;9.758;2023-02-28T11:26:08;102990.41;;;7.51;52.13
5651;BME280;40241;52.684;9.758;2023-02-28T11:28:40;102989.44;;;7.65;52.06
5651;BME280;40241;52.684;9.758;2023-02-28T11:33:46;102975.59;;;7.99;51.32
5651;BME280;40241;52.684;9.758;2023-02-28T11:36:18;102980.34;;;8.18;51.23
5651;BME280;40241;52.684;9.758;2023-02-28T11:38:44;102979.97;;;8.39;51.49
5651;BME280;40241;52.684;9.758;2023-02-28T11:47:00;102983.91;;;9.33;50.34
5651;BME280;40241;52.684;9.758;2023-02-28T11:52:40;102992.91;;;9.85;48.04
5651;BME280;40241;52.684;9.758;2023-02-28T11:55:15;102976.06;;;10.15;50.13
5651;BME280;40241;52.684;9.758;2023-02-28T12:03:26;102978.72;;;10.76;47.89
5651;BME280;40241;52.684;9.758;2023-02-28T12:06:01;102973.91;;;10.93;48.10
5651;BME280;40241;52.684;9.758;2023-02-28T12:11:30;102960.94;;;11.06;46.09
5651;BME280;40241;52.684;9.758;2023-02-28T12:14:22;102957.50;;;11.14;45.22
5651;BME280;40241;52.684;9.758;2023-02-28T12:19:50;102958.72;;;11.51;43.13
5651;BME280;40241;52.684;9.758;2023-02-28T12:27:48;102951.44;;;11.45;45.86
5651;BME280;40241;52.684;9.758;2023-02-28T12:30:39;102942.19;;;11.51;43.29
5651;BME280;40241;52.684;9.758;2023-02-28T12:33:09;102951.78;;;11.59;46.06
5651;BME280;40241;52.684;9.758;2023-02-28T12:35:44;102936.22;;;11.65;46.34
5651;BME280;40241;52.684;9.758;2023-02-28T12:38:16;102940.28;;;11.86;46.56
5651;BME280;40241;52.684;9.758;2023-02-28T12:40:52;102928.63;;;12.03;45.80
5651;BME280;40241;52.684;9.758;2023-02-28T12:43:20;102930.59;;;12.16;46.14
5651;BME280;40241;52.684;9.758;2023-02-28T12:45:57;102922.69;;;12.27;43.51
5651;BME280;40241;52.684;9.758;2023-02-28T12:48:29;102918.84;;;12.46;45.50
5651;BME280;40241;52.684;9.758;2023-02-28T12:50:57;102915.84;;;12.53;46.06
5651;BME280;40241;52.684;9.758;2023-02-28T12:58:54;102905.94;;;12.64;44.45
5651;BME280;40241;52.684;9.758;2023-02-28T13:01:34;102902.63;;;12.78;44.45
5651;BME280;40241;52.684;9.758;2023-02-28T13:07:06;102903.25;;;12.82;42.36
5651;BME280;40241;52.684;9.758;2023-02-28T13:09:35;102898.81;;;12.85;44.87
5651;BME280;40241;52.684;9.758;2023-02-28T13:12:12;102901.94;;;12.96;42.17
5651;BME280;40241;52.684;9.758;2023-02-28T13:14:38;102899.50;;;12.98;44.60
5651;BME280;40241;52.684;9.758;2023-02-28T13:19:37;102882.88;;;12.89;43.67
5651;BME280;40241;52.684;9.758;2023-02-28T13:22:03;102877.06;;;12.96;44.15
5651;BME280;40241;52.684;9.758;2023-02-28T13:24:39;102881.38;;;12.97;42.51
5651;BME280;40241;52.684;9.758;2023-02-28T13:29:35;102866.09;;;13.05;44.03
5651;BME280;40241;52.684;9.758;2023-02-28T13:40:07;102862.91;;;12.85;42.95
5651;BME280;40241;52.684;9.758;2023-02-28T13:42:48;102874.50;;;13.02;44.14
5651;BME280;40241;52.684;9.758;2023-02-28T13:45:27;102870.28;;;12.88;40.60
5651;BME280;40241;52.684;9.758;2023-02-28T13:47:59;102867.50;;;12.79;42.63
5651;BME280;40241;52.684;9.758;2023-02-28T13:55:49;102870.56;;;12.81;42.01
5651;BME280;40241;52.684;9.758;2023-02-28T14:06:26;102869.81;;;12.90;38.20
5651;BME280;40241;52.684;9.758;2023-02-28T14:11:37;102861.34;;;12.75;40.85
5651;BME280;40241;52.684;9.758;2023-02-28T14:14:04;102862.28;;;12.81;43.57
5651;BME280;40241;52.684;9.758;2023-02-28T14:16:41;102855.06;;;12.84;41.41
5651;BME280;40241;52.684;9.758;2023-02-28T14:19:38;102864.41;;;12.77;40.45
5651;BME280;40241;52.684;9.758;2023-02-28T14:27:48;102862.53;;;12.74;42.75
5651;BME280;40241;52.684;9.758;2023-02-28T14:38:46;102857.34;;;12.24;43.21
5651;BME280;40241;52.684;9.758;2023-02-28T14:41:28;102856.31;;;12.09;42.15
5651;BME280;40241;52.684;9.758;2023-02-28T14:43:57;102858.13;;;12.02;42.92
5651;BME280;40241;52.684;9.758;2023-02-28T14:46:25;102866.88;;;11.88;43.39
5651;BME280;40241;52.684;9.758;2023-02-28T14:48:52;102860.72;;;11.84;43.75
5651;BME280;40241;52.684;9.758;2023-02-28T14:51:19;102863.63;;;11.81;43.49
5651;BME280;40241;52.684;9.758;2023-02-28T14:53:50;102863.53;;;11.72;43.43
5651;BME280;40241;52.684;9.758;2023-02-28T14:56:21;102857.44;;;11.64;43.28
5651;BME280;40241;52.684;9.758;2023-02-28T14:58:52;102856.94;;;11.57;43.56
5651;BME280;40241;52.684;9.758;2023-02-28T15:01:20;102855.31;;;11.34;43.15
5651;BME280;40241;52.684;9.758;2023-02-28T15:03:46;102846.63;;;11.23;43.83
5651;BME280;40241;52.684;9.758;2023-02-28T15:06:17;102848.75;;;11.19;43.67
5651;BME280;40241;52.684;9.758;2023-02-28T15:08:45;102852.63;;;11.09;43.99
5651;BME280;40241;52.684;9.758;2023-02-28T15:11:18;102847.31;;;11.02;42.10
5651;BME280;40241;52.684;9.758;2023-02-28T15:13:54;102849.75;;;11.00;42.73
5651;BME280;40241;52.684;9.758;2023-02-28T15:16:37;102853.06;;;10.95;40.98
5651;BME280;40241;52.684;9.758;2023-02-28T15:19:12;102848.53;;;10.88;43.83
5651;BME280;40241;52.684;9.758;2023-02-28T15:21:42;102849.75;;;10.87;43.93
5651;BME280;40241;52.684;9.758;2023-02-28T15:24:18;102847.22;;;10.80;43.42
5651;BME280;40241;52.684;9.758;2023-02-28T15:26:53;102843.25;;;10.81;44.09
5651;BME280;40241;52.684;9.758;2023-02-28T15:29:22;102848.34;;;10.70;43.59